ムンバイ の空港の天気 - METARとTAF

チャットラパティー・シヴァージー国際空港 ( VABB / BOM ) - インド ムンバイ
飛行場実況気象(Metar)
観測時間09/22 06:30 IST (09/22 01:00 UTC)
風向・風速静穏 0m/s
視程2500m
天気現象煙霧
少しの雲 雲底高度 550m
全天の4割程度の雲 雲底高度 760m
全天の8割程度の雲 雲底高度 3050m
気温27℃
湿度94%
気圧1000hPa
METARVABB 220100Z 00000KT 2500 HZ FEW018 SCT025 BKN100 27/26 Q1000 NOSIG
過去の天気等 Google飛行場航空写真 Wunderground天気予報

過去48時間のMETAR

飛行場予報(TAF)
発表時間: 9/22 04:30 IST (9/21 23:00 UTC)
予報対象時間: 22日5時 IST ~ 22日14時 IST
風向・風速南西 2m/s
視程2500m
天気現象弱い雨 煙霧
少しの雲 雲底高度 370m
全天の4割程度の雲 雲底高度 550m
少しの塔状積雲 雲底高度 760m
全天の8割程度の雲 雲底高度 2740m
22日5時 IST ~ 22日14時 IST に一時的に
視程1500m
天気現象雷雨 しゅう雨
全天の4割程度の雲 雲底高度 460m
少しの積乱雲 雲底高度 910m
全天を覆う雲 雲底高度 2440m
22日9時 IST ~ 22日11時 IST に徐々に
風向・風速西北西 5m/s
視程3000m
天気現象弱い雨 煙霧
22日12時 IST ~ 22日14時 IST に徐々に
風向・風速西 5m/s 瞬間風速 10m/s
視程3000m
天気現象弱い雨 煙霧
TAF VABB 212300Z 2200/2209 22004KT 2500 -RA HZ FEW012 SCT018 FEW025TCU BKN090
TEMPO 2200/2209 1500 TSRA SHRA SCT015 FEW030CB OVC080
BECMG 2204/2206 30010KT 3000 -RA HZ
BECMG 2207/2209 28010G20KT 3000 -RA HZ